Time;durP1;ratioP1;P1;durP2;ratioP2;P2;SDS_P1;SDS_P2;PMS_P1;PMS_P2;Temp;Humidity;BMP_temperature;BMP_pressure;BME280_temperature;BME280_humidity;BME280_pressure;Samples;Min_cycle;Max_cycle;Signal;HPM_P1;HPM_P2
2022/12/23 00:01:25;;;;;;;44.63;19.40;;;;;;;2.58;85.44;99914.97;1796983;80;21087;-65
2022/12/23 00:03:58;;;;;;;41.42;19.17;;;;;;;2.56;85.08;99913.77;1796909;79;21125;-67
2022/12/23 00:06:27;;;;;;;39.63;18.95;;;;;;;2.53;84.86;99920.34;1829314;78;21105;-67
2022/12/23 00:08:59;;;;;;;41.10;18.05;;;;;;;2.50;84.61;99918.46;1833764;78;21109;-67
2022/12/23 00:11:28;;;;;;;40.88;17.67;;;;;;;2.49;84.37;99905.95;1833753;78;21143;-68
2022/12/23 00:16:48;;;;;;;41.18;17.87;;;;;;;2.47;84.34;99893.94;1833168;78;21106;-67
2022/12/23 00:19:17;;;;;;;39.65;18.85;;;;;;;2.48;84.36;99896.98;1833822;78;21094;-65
2022/12/23 00:21:47;;;;;;;35.73;18.15;;;;;;;2.49;84.30;99888.38;1833861;78;21113;-67
2022/12/23 00:24:17;;;;;;;35.28;18.00;;;;;;;2.50;84.23;99897.68;1833716;78;21587;-67
2022/12/23 00:26:46;;;;;;;40.48;17.05;;;;;;;2.48;84.14;99886.67;1833473;78;21106;-64
2022/12/23 00:29:15;;;;;;;39.85;17.37;;;;;;;2.48;84.09;99887.52;1833595;78;21126;-66
2022/12/23 00:31:45;;;;;;;42.25;18.37;;;;;;;2.50;84.08;99877.91;1833587;78;21090;-68
2022/12/23 00:34:16;;;;;;;41.08;17.95;;;;;;;2.49;84.08;99880.27;1833514;78;21524;-65
2022/12/23 00:36:45;;;;;;;38.38;18.20;;;;;;;2.48;84.05;99879.92;1833711;78;21553;-67
2022/12/23 00:45:14;;;;;;;38.75;17.32;;;;;;;2.48;84.01;99874.52;1830119;77;22121;-67
2022/12/23 00:50:15;;;;;;;34.58;16.07;;;;;;;2.42;84.02;99873.29;1788915;79;21150;-67
2022/12/23 00:52:44;;;;;;;34.60;17.23;;;;;;;2.41;84.07;99868.04;1788924;80;21111;-67
2022/12/23 00:55:13;;;;;;;40.58;17.75;;;;;;;2.42;84.25;99867.03;1788705;79;21163;-67
2022/12/23 00:57:42;;;;;;;31.20;15.90;;;;;;;2.41;84.28;99855.87;1788829;80;21122;-67
2022/12/23 01:00:12;;;;;;;34.13;16.85;;;;;;;2.40;84.24;99852.33;1788704;80;21213;-67
2022/12/23 01:05:36;;;;;;;34.60;15.83;;;;;;;2.41;84.35;99855.87;1788755;79;21135;-67
2022/12/23 01:08:10;;;;;;;32.40;15.78;;;;;;;2.43;84.33;99859.27;1788686;80;21103;-66
2022/12/23 01:10:40;;;;;;;34.58;16.27;;;;;;;2.42;84.32;99853.02;1788521;79;21169;-67
2022/12/23 01:13:09;;;;;;;31.40;15.55;;;;;;;2.41;84.37;99849.12;1788669;80;21135;-67
2022/12/23 01:15:38;;;;;;;36.05;16.30;;;;;;;2.41;84.45;99853.17;1788849;80;21598;-66
2022/12/23 01:18:08;;;;;;;36.20;15.95;;;;;;;2.40;84.46;99848.77;1788633;80;21510;-66
2022/12/23 01:20:38;;;;;;;32.75;15.80;;;;;;;2.40;84.54;99863.14;1788604;80;21247;-65
2022/12/23 01:23:08;;;;;;;33.38;15.20;;;;;;;2.40;84.56;99864.48;1788714;79;21119;-66
2022/12/23 01:25:37;;;;;;;30.55;14.75;;;;;;;2.41;84.53;99858.08;1788650;80;21107;-67
2022/12/23 01:28:06;;;;;;;34.10;15.20;;;;;;;2.44;84.68;99860.97;1788778;80;21123;-65
2022/12/23 01:30:36;;;;;;;33.33;16.48;;;;;;;2.43;84.59;99861.47;1788615;79;21107;-67
2022/12/23 01:33:08;;;;;;;31.27;15.75;;;;;;;2.42;84.63;99860.27;1769416;80;21115;-68
2022/12/23 01:35:37;;;;;;;33.80;16.02;;;;;;;2.41;84.67;99863.98;1788627;80;21107;-68
2022/12/23 01:38:05;;;;;;;32.55;15.88;;;;;;;2.40;84.63;99863.64;1788598;80;21075;-65
2022/12/23 01:40:36;;;;;;;33.50;15.08;;;;;;;2.39;84.72;99856.03;1788738;80;21135;-67
2022/12/23 01:43:05;;;;;;;33.05;15.00;;;;;;;2.40;84.74;99855.53;1788527;80;21131;-66
2022/12/23 01:45:34;;;;;;;31.97;15.18;;;;;;;2.40;84.76;99845.56;1788918;80;21120;-69
2022/12/23 01:48:20;;;;;;;35.68;15.68;;;;;;;2.39;84.82;99848.42;1789028;80;21184;-68
2022/12/23 01:51:00;;;;;;;30.82;14.73;;;;;;;2.38;84.87;99851.64;1788943;80;21139;-67
2022/12/23 01:53:33;;;;;;;31.50;14.63;;;;;;;2.37;85.01;99843.69;1788936;80;21592;-67
2022/12/23 01:56:09;;;;;;;35.33;16.45;;;;;;;2.36;85.06;99852.80;1788498;80;21131;-68
2022/12/23 01:58:41;;;;;;;31.93;15.63;;;;;;;2.37;85.16;99854.50;1748844;82;21146;-67
2022/12/23 02:04:02;;;;;;;33.08;16.55;;;;;;;2.33;85.40;99862.08;1721359;83;21110;-69
2022/12/23 02:09:28;;;;;;;33.88;15.30;;;;;;;2.29;85.72;99842.28;1721253;82;21125;-68
2022/12/23 02:12:24;;;;;;;33.45;16.00;;;;;;;2.26;85.83;99839.39;1729823;83;21163;-67
2022/12/23 02:18:27;;;;;;;33.45;15.53;;;;;;;2.23;86.08;99849.16;1732711;83;21602;-66
2022/12/23 02:21:17;;;;;;;33.02;15.28;;;;;;;2.24;86.17;99845.45;1721507;83;21122;-66
2022/12/23 02:24:25;;;;;;;31.97;14.68;;;;;;;2.19;86.21;99834.27;1732607;82;21611;-68
2022/12/23 02:27:18;;;;;;;31.50;14.85;;;;;;;2.18;86.34;99833.92;1721604;83;21146;-69
2022/12/23 02:30:25;;;;;;;31.65;14.65;;;;;;;2.16;86.47;99835.44;1732552;83;21123;-67
2022/12/23 02:33:20;;;;;;;33.67;15.40;;;;;;;2.18;86.52;99837.48;1721453;83;21158;-69
2022/12/23 02:36:08;;;;;;;32.67;16.07;;;;;;;2.20;86.65;99830.56;1732700;83;21108;-68
2022/12/23 02:38:57;;;;;;;32.88;15.63;;;;;;;2.19;86.78;99828.36;1721747;83;21153;-68
2022/12/23 02:41:43;;;;;;;31.00;15.28;;;;;;;2.19;86.91;99827.02;1732605;83;21175;-66
2022/12/23 02:44:31;;;;;;;32.75;15.95;;;;;;;2.21;86.96;99823.64;1715662;83;21217;-67
2022/12/23 02:47:03;;;;;;;30.25;15.38;;;;;;;2.21;86.84;99825.00;1774758;80;21164;-69
2022/12/23 02:49:42;;;;;;;33.20;15.23;;;;;;;2.21;86.85;99822.30;1774763;81;21190;-68
2022/12/23 02:52:14;;;;;;;32.15;15.45;;;;;;;2.20;86.79;99822.45;1774583;80;21119;-66
2022/12/23 02:54:53;;;;;;;32.28;16.12;;;;;;;2.20;86.94;99829.20;1774733;79;21104;-68
2022/12/23 02:57:30;;;;;;;33.20;15.80;;;;;;;2.19;87.11;99824.81;1774610;81;21096;-69
2022/12/23 03:00:02;;;;;;;35.98;16.20;;;;;;;2.19;87.14;99826.16;1774603;80;21120;-67
2022/12/23 03:02:33;;;;;;;33.85;15.72;;;;;;;2.20;87.22;99827.86;1774549;80;21119;-67
2022/12/23 03:05:03;;;;;;;32.28;14.98;;;;;;;2.21;87.17;99823.64;1774559;81;21131;-69
2022/12/23 03:07:40;;;;;;;35.08;15.18;;;;;;;2.21;87.22;99820.09;1774460;81;21155;-67
2022/12/23 03:10:17;;;;;;;26.40;13.05;;;;;;;2.20;87.29;99819.75;1774694;81;21190;-66
2022/12/23 03:13:26;;;;;;;30.30;15.30;;;;;;;2.20;87.37;99832.77;1774843;81;21535;-65
2022/12/23 03:16:13;;;;;;;34.70;15.18;;;;;;;2.19;87.44;99828.87;1774582;81;21547;-65
2022/12/23 03:19:00;;;;;;;35.65;16.23;;;;;;;2.18;87.54;99832.07;1774610;81;21115;-67
2022/12/23 03:21:51;;;;;;;35.90;16.17;;;;;;;2.19;87.48;99827.02;1774819;81;21132;-69
2022/12/23 03:25:00;;;;;;;33.60;15.55;;;;;;;2.18;87.52;99833.92;1774738;81;21159;-68
2022/12/23 03:27:41;;;;;;;34.48;16.25;;;;;;;2.16;87.59;99830.03;1774863;81;21096;-67
2022/12/23 03:30:17;;;;;;;32.17;16.17;;;;;;;2.14;87.64;99819.03;1774429;81;21123;-66
2022/12/23 03:33:03;;;;;;;26.65;12.37;;;;;;;2.11;87.66;99811.25;1774730;81;21089;-66
2022/12/23 03:35:37;;;;;;;33.85;15.40;;;;;;;2.08;87.82;99811.05;1774717;81;22106;-66
2022/12/23 03:38:06;;;;;;;35.68;16.30;;;;;;;2.09;87.96;99821.36;1774584;81;21151;-67
2022/12/23 03:40:40;;;;;;;30.95;15.78;;;;;;;2.06;88.02;99818.47;1774378;79;21151;-66
2022/12/23 03:43:13;;;;;;;36.10;17.35;;;;;;;2.06;88.13;99813.57;1774729;81;21131;-67
2022/12/23 03:45:46;;;;;;;34.88;18.15;;;;;;;2.04;88.14;99816.43;1774432;80;21135;-66
2022/12/23 03:48:27;;;;;;;36.00;17.20;;;;;;;2.03;88.30;99824.70;1774739;81;21076;-68
2022/12/23 03:51:00;;;;;;;36.23;16.57;;;;;;;2.04;88.36;99826.39;1747187;81;21121;-66
2022/12/23 03:53:33;;;;;;;35.13;17.32;;;;;;;2.06;88.26;99827.08;1774539;80;21123;-67
2022/12/23 03:56:10;;;;;;;35.78;17.27;;;;;;;2.05;88.30;99828.94;1774373;80;21115;-67
2022/12/23 03:58:46;;;;;;;33.70;16.25;;;;;;;2.07;88.42;99832.83;1774597;81;21507;-67
2022/12/23 04:01:44;;;;;;;36.60;18.32;;;;;;;2.09;88.38;99831.67;1774474;79;21162;-68
2022/12/23 04:04:46;;;;;;;38.43;17.17;;;;;;;2.10;88.37;99820.36;1774060;81;21147;-69
2022/12/23 04:07:26;;;;;;;38.30;17.32;;;;;;;2.10;88.30;99809.05;1732704;80;21119;-65
2022/12/23 04:09:55;;;;;;;36.17;17.17;;;;;;;2.10;88.20;99817.16;1774470;81;21147;-67
2022/12/23 04:12:26;;;;;;;38.40;16.97;;;;;;;2.08;88.01;99816.46;1720294;81;21147;-67
2022/12/23 04:14:55;;;;;;;38.28;17.80;;;;;;;2.06;87.96;99800.91;1774531;81;21072;-67
2022/12/23 04:17:25;;;;;;;35.52;17.80;;;;;;;2.06;87.82;99808.17;1774515;81;21136;-68
2022/12/23 04:19:55;;;;;;;39.38;17.05;;;;;;;2.05;87.88;99809.17;1730921;83;21586;-66
2022/12/23 04:22:26;;;;;;;36.10;17.25;;;;;;;2.06;87.83;99804.97;1731160;83;21221;-66
2022/12/23 04:24:55;;;;;;;35.23;17.15;;;;;;;2.07;87.72;99811.21;1731112;83;21135;-67
2022/12/23 04:27:26;;;;;;;35.95;18.02;;;;;;;2.07;87.73;99804.46;1730901;83;21567;-67
2022/12/23 04:29:55;;;;;;;40.58;17.92;;;;;;;2.06;87.75;99811.72;1654762;86;21193;-69
2022/12/23 04:32:23;;;;;;;38.23;19.23;;;;;;;2.07;87.75;99822.02;1730893;82;21111;-64
2022/12/23 04:34:53;;;;;;;47.95;19.48;;;;;;;2.05;87.79;99824.88;1731139;83;21242;-67
2022/12/23 04:37:23;;;;;;;48.87;20.68;;;;;;;2.04;87.79;99826.39;1654450;86;21167;-69
2022/12/23 04:39:52;;;;;;;41.88;18.25;;;;;;;2.01;87.80;99838.86;1730986;82;21171;-67
2022/12/23 04:42:21;;;;;;;36.70;18.15;;;;;;;2.02;88.01;99837.35;1730914;83;21183;-69
2022/12/23 04:44:51;;;;;;;42.10;18.82;;;;;;;2.00;88.02;99844.77;1758183;80;21531;-68
2022/12/23 04:47:20;;;;;;;38.42;17.42;;;;;;;1.98;88.06;99846.78;1774475;79;21119;-69
2022/12/23 04:49:49;;;;;;;41.58;18.40;;;;;;;1.93;88.11;99849.56;1774492;81;21612;-67
2022/12/23 04:52:18;;;;;;;43.50;17.80;;;;;;;1.91;88.37;99854.63;1774451;81;21562;-68
2022/12/23 04:54:48;;;;;;;35.23;16.90;;;;;;;1.92;88.44;99860.88;1774704;81;21107;-69
2022/12/23 04:57:17;;;;;;;37.73;17.60;;;;;;;1.93;88.51;99852.27;1774781;79;21100;-67
2022/12/23 04:59:47;;;;;;;40.83;18.35;;;;;;;1.93;88.58;99857.17;1774456;79;21139;-67
2022/12/23 05:02:16;;;;;;;42.13;19.35;;;;;;;1.91;88.56;99855.97;1774425;79;21140;-67
2022/12/23 05:04:45;;;;;;;38.28;18.02;;;;;;;1.90;88.68;99853.43;1774492;81;21127;-69
2022/12/23 05:07:15;;;;;;;40.20;17.95;;;;;;;1.89;88.75;99853.08;1774490;81;21582;-69
2022/12/23 05:09:45;;;;;;;39.80;16.97;;;;;;;1.87;88.89;99845.64;1774500;81;21147;-67
2022/12/23 05:12:13;;;;;;;37.42;18.23;;;;;;;1.88;88.97;99848.69;1774517;80;21147;-69
2022/12/23 05:14:42;;;;;;;38.50;17.65;;;;;;;1.87;88.98;99851.04;1774472;81;21119;-68
2022/12/23 05:17:12;;;;;;;41.83;18.90;;;;;;;1.85;89.10;99847.14;1774458;81;21542;-68
2022/12/23 05:19:41;;;;;;;38.50;17.48;;;;;;;1.83;89.17;99837.50;1774646;81;21108;-69
2022/12/23 05:22:10;;;;;;;43.10;19.10;;;;;;;1.83;89.27;99828.05;1774394;81;21112;-67
2022/12/23 05:24:39;;;;;;;48.28;18.80;;;;;;;1.82;89.28;99816.40;1774368;79;21551;-69
2022/12/23 05:27:07;;;;;;;42.13;18.57;;;;;;;1.83;89.31;99818.59;1774678;81;21107;-68
2022/12/23 05:29:37;;;;;;;55.38;24.55;;;;;;;1.81;89.29;99830.05;1774654;81;21163;-70
2022/12/23 05:32:06;;;;;;;40.88;18.77;;;;;;;1.79;89.34;99828.02;1774675;81;21108;-69
2022/12/23 05:34:36;;;;;;;43.45;19.23;;;;;;;1.78;89.38;99829.87;1774588;81;21166;-68
2022/12/23 05:37:05;;;;;;;53.02;21.12;;;;;;;1.77;89.43;99824.62;1774652;81;21167;-67
2022/12/23 05:39:36;;;;;;;47.95;20.60;;;;;;;1.76;89.49;99824.27;1764215;81;21198;-68
2022/12/23 05:42:05;;;;;;;39.75;19.35;;;;;;;1.77;89.50;99820.57;1774578;80;21578;-67
2022/12/23 05:44:35;;;;;;;40.83;18.73;;;;;;;1.78;89.61;99812.81;1776424;80;21675;-67
2022/12/23 05:47:04;;;;;;;41.80;19.55;;;;;;;1.80;89.80;99812.16;1788464;80;21075;-69
2022/12/23 05:49:34;;;;;;;40.60;19.48;;;;;;;1.80;89.74;99809.45;1771049;80;21111;-65
2022/12/23 05:52:05;;;;;;;46.10;20.55;;;;;;;1.78;89.72;99808.26;1788314;80;21146;-67
2022/12/23 05:54:34;;;;;;;50.88;21.68;;;;;;;1.75;89.67;99811.27;1788364;80;21158;-67
2022/12/23 05:57:04;;;;;;;48.15;19.35;;;;;;;1.74;89.78;99819.53;1788528;80;21616;-71
2022/12/23 05:59:35;;;;;;;54.08;24.15;;;;;;;1.72;89.83;99821.03;1788380;79;21115;-69
2022/12/23 06:02:05;;;;;;;49.25;22.48;;;;;;;1.71;89.91;99839.59;1788315;80;21103;-67
2022/12/23 06:04:35;;;;;;;47.65;21.85;;;;;;;1.72;90.02;99833.69;1788494;79;21127;-69
2022/12/23 06:07:04;;;;;;;49.40;22.32;;;;;;;1.69;90.09;99845.65;1788625;80;21080;-67
2022/12/23 06:09:33;;;;;;;41.90;18.98;;;;;;;1.69;90.16;99842.09;1788271;80;21154;-65
2022/12/23 06:12:03;;;;;;;39.13;18.82;;;;;;;1.70;90.33;99845.14;1788261;80;21147;-68
2022/12/23 06:14:32;;;;;;;38.83;19.52;;;;;;;1.72;90.45;99837.73;1788277;79;21166;-66
2022/12/23 06:17:02;;;;;;;42.27;20.02;;;;;;;1.73;90.55;99844.84;1788458;80;21107;-69
2022/12/23 06:19:31;;;;;;;42.50;20.32;;;;;;;1.73;90.58;99856.48;1788274;80;21199;-68
2022/12/23 06:22:00;;;;;;;42.58;19.17;;;;;;;1.75;90.64;99844.18;1788462;80;21166;-67
2022/12/23 06:24:29;;;;;;;40.40;19.20;;;;;;;1.74;90.62;99835.73;1788526;80;21151;-68
2022/12/23 06:26:58;;;;;;;47.67;20.77;;;;;;;1.77;90.66;99846.23;1788258;80;21119;-69
2022/12/23 06:29:28;;;;;;;45.15;21.33;;;;;;;1.75;90.60;99854.98;1788549;80;21166;-69
2022/12/23 06:31:57;;;;;;;50.17;22.73;;;;;;;1.75;90.68;99879.29;1788339;80;21170;-68
2022/12/23 06:34:27;;;;;;;44.50;23.52;;;;;;;1.77;90.83;99871.37;1788256;80;21115;-67
2022/12/23 06:36:56;;;;;;;45.95;19.98;;;;;;;1.79;90.86;99862.63;1788588;80;21106;-68
2022/12/23 06:39:27;;;;;;;42.27;18.48;;;;;;;1.82;90.88;99864.16;1788457;80;21107;-67
2022/12/23 06:41:56;;;;;;;43.28;19.12;;;;;;;1.84;90.80;99867.05;1788365;79;21541;-68
2022/12/23 06:44:25;;;;;;;40.80;19.62;;;;;;;1.85;90.77;99873.30;1788392;80;21189;-67
2022/12/23 06:46:55;;;;;;;39.33;19.23;;;;;;;1.86;90.72;99867.75;1774691;80;21571;-68
2022/12/23 06:49:25;;;;;;;41.18;19.98;;;;;;;1.86;90.62;99862.34;1774698;81;21104;-67
2022/12/23 06:51:55;;;;;;;42.03;19.15;;;;;;;1.86;90.55;99868.25;1774701;81;21174;-68
2022/12/23 06:54:24;;;;;;;39.03;19.50;;;;;;;1.87;90.57;99872.15;1774460;81;21085;-70
2022/12/23 06:56:53;;;;;;;41.10;19.32;;;;;;;1.91;90.52;99873.53;1774545;81;21535;-68
2022/12/23 06:59:22;;;;;;;40.38;19.92;;;;;;;1.91;90.28;99861.88;1774772;81;21147;-69
2022/12/23 07:01:52;;;;;;;40.23;19.25;;;;;;;1.91;90.20;99862.73;1774458;81;21597;-69
2022/12/23 07:04:22;;;;;;;40.88;20.20;;;;;;;1.91;90.12;99855.13;1774524;81;21558;-69
2022/12/23 07:06:51;;;;;;;40.85;19.67;;;;;;;1.89;90.06;99855.78;1774504;81;21135;-70
2022/12/23 07:09:21;;;;;;;43.87;19.65;;;;;;;1.91;90.06;99856.48;1774778;81;21531;-68
2022/12/23 07:14:42;;;;;;;39.27;20.10;;;;;;;1.94;89.96;99849.41;1724148;83;21165;-70
2022/12/23 07:17:11;;;;;;;40.92;19.70;;;;;;;1.99;89.97;99856.58;1724234;83;21186;-68
2022/12/23 07:19:41;;;;;;;43.68;19.67;;;;;;;2.02;89.96;99864.87;1724470;83;21189;-69
2022/12/23 07:22:12;;;;;;;42.08;19.67;;;;;;;2.05;89.88;99855.10;1629903;86;21115;-68
2022/12/23 07:24:42;;;;;;;40.17;19.73;;;;;;;2.09;89.67;99864.09;1629826;88;21183;-69
2022/12/23 07:27:12;;;;;;;41.25;19.67;;;;;;;2.12;89.39;99870.53;1630050;88;21225;-67
2022/12/23 07:29:41;;;;;;;47.50;20.50;;;;;;;2.14;89.28;99872.58;1629816;86;22108;-67
2022/12/23 07:32:12;;;;;;;41.00;20.90;;;;;;;2.17;89.24;99872.77;1629877;88;21142;-69
2022/12/23 07:34:42;;;;;;;40.90;20.88;;;;;;;2.18;89.18;99864.50;1629795;88;21178;-68
2022/12/23 07:37:11;;;;;;;45.58;21.75;;;;;;;2.22;89.10;99856.42;1629844;88;21126;-69
2022/12/23 07:39:41;;;;;;;46.28;21.50;;;;;;;2.28;88.89;99852.75;1649116;83;21244;-68
2022/12/23 07:42:11;;;;;;;43.08;20.85;;;;;;;2.32;88.66;99857.67;1723950;83;21185;-69
2022/12/23 07:44:42;;;;;;;38.88;20.12;;;;;;;2.39;88.50;99850.63;1719951;83;21213;-66
2022/12/23 07:47:12;;;;;;;42.33;20.48;;;;;;;2.44;88.25;99849.65;1723977;83;21165;-66
2022/12/23 07:49:41;;;;;;;42.85;21.10;;;;;;;2.54;88.22;99846.33;1724321;83;21209;-69
2022/12/23 07:52:10;;;;;;;40.05;19.70;;;;;;;2.70;88.16;99843.41;1723975;83;21142;-68
2022/12/23 07:54:40;;;;;;;40.90;20.17;;;;;;;2.92;87.92;99840.63;1723965;83;21134;-68
2022/12/23 07:57:10;;;;;;;41.70;20.68;;;;;;;3.10;87.33;99844.09;1724037;83;21138;-70
2022/12/23 07:59:40;;;;;;;41.33;21.10;;;;;;;3.22;86.47;99840.58;1724070;83;21209;-70
2022/12/23 08:02:12;;;;;;;47.03;22.85;;;;;;;3.36;85.96;99854.86;1724162;83;21189;-69
2022/12/23 08:04:43;;;;;;;47.75;22.80;;;;;;;3.44;85.17;99844.05;1724169;83;21130;-69
2022/12/23 08:07:14;;;;;;;41.80;20.85;;;;;;;3.47;84.45;99854.05;1724070;83;21166;-68
2022/12/23 08:09:44;;;;;;;36.70;19.82;;;;;;;3.47;83.84;99847.28;1724010;83;21174;-70
2022/12/23 08:12:13;;;;;;;37.30;19.62;;;;;;;3.44;83.42;99850.83;1724090;83;21122;-70
2022/12/23 08:14:47;;;;;;;43.80;19.05;;;;;;;3.40;83.16;99848.95;1723967;83;21173;-68
2022/12/23 08:17:16;;;;;;;41.13;19.85;;;;;;;3.40;82.79;99848.11;1723912;83;21202;-70
2022/12/23 08:19:47;;;;;;;36.42;18.82;;;;;;;3.35;82.55;99849.11;1723829;82;21122;-69
2022/12/23 08:22:16;;;;;;;41.75;20.27;;;;;;;3.32;82.51;99837.25;1723919;83;21142;-65
2022/12/23 08:24:45;;;;;;;41.50;20.80;;;;;;;3.30;82.60;99848.25;1724072;82;21186;-68
2022/12/23 08:27:15;;;;;;;44.18;21.73;;;;;;;3.31;82.75;99843.69;1724381;82;21178;-71
2022/12/23 08:29:44;;;;;;;44.58;21.02;;;;;;;3.33;82.70;99843.86;1724184;83;21619;-66
2022/12/23 08:32:13;;;;;;;37.35;19.50;;;;;;;3.35;82.60;99832.36;1723885;82;21136;-66
2022/12/23 08:34:43;;;;;;;38.63;19.45;;;;;;;3.41;82.52;99828.14;1724143;83;21122;-69
2022/12/23 08:37:13;;;;;;;34.78;18.45;;;;;;;3.42;82.31;99831.19;1723976;83;21146;-68
2022/12/23 08:39:44;;;;;;;33.75;17.77;;;;;;;3.43;82.26;99818.84;1724381;83;21182;-69
2022/12/23 08:42:13;;;;;;;37.42;18.30;;;;;;;3.46;82.21;99814.44;1724014;83;21145;-67
2022/12/23 08:44:42;;;;;;;38.98;19.82;;;;;;;3.49;81.87;99801.08;1724119;82;21146;-67
2022/12/23 08:47:12;;;;;;;38.83;18.95;;;;;;;3.49;81.58;99801.08;1724178;83;21236;-68
2022/12/23 08:49:41;;;;;;;41.30;19.27;;;;;;;3.48;81.51;99798.03;1724053;83;21218;-67
2022/12/23 08:52:12;;;;;;;36.53;18.20;;;;;;;3.47;81.21;99798.53;1724027;83;21142;-69
2022/12/23 08:54:42;;;;;;;40.52;19.75;;;;;;;3.46;81.00;99799.55;1724355;83;21174;-69
2022/12/23 08:57:11;;;;;;;40.63;20.82;;;;;;;3.45;81.08;99803.27;1723947;83;21142;-64
2022/12/23 08:59:42;;;;;;;40.58;21.55;;;;;;;3.47;81.13;99809.87;1724070;82;21609;-69
2022/12/23 09:02:12;;;;;;;40.40;20.05;;;;;;;3.48;81.25;99816.98;1724437;83;21146;-69
2022/12/23 09:04:41;;;;;;;39.58;19.95;;;;;;;3.50;81.35;99825.28;1723938;83;21142;-68
2022/12/23 09:07:11;;;;;;;37.58;20.52;;;;;;;3.53;81.23;99825.45;1724096;83;21150;-69
2022/12/23 09:09:41;;;;;;;44.55;21.37;;;;;;;3.57;81.29;99817.84;1724269;83;21130;-68
2022/12/23 09:12:09;;;;;;;37.15;19.15;;;;;;;3.63;81.29;99810.41;1724296;83;21657;-70
2022/12/23 09:14:38;;;;;;;38.65;21.00;;;;;;;3.69;81.14;99818.70;1721584;83;21695;-68
2022/12/23 09:17:08;;;;;;;41.58;20.88;;;;;;;3.73;80.95;99816.50;1703159;83;21193;-68
2022/12/23 09:19:38;;;;;;;39.45;20.92;;;;;;;3.76;81.04;99822.44;1722378;83;21201;-68
2022/12/23 09:22:08;;;;;;;41.83;20.88;;;;;;;3.78;80.79;99827.17;1722603;83;21162;-69
2022/12/23 09:24:39;;;;;;;40.98;21.15;;;;;;;3.80;80.64;99832.43;1722360;83;21602;-68
2022/12/23 09:27:08;;;;;;;44.55;21.62;;;;;;;3.81;80.67;99832.77;1722329;83;21158;-68
2022/12/23 09:29:39;;;;;;;43.68;19.20;;;;;;;3.83;80.46;99831.58;1722492;83;21593;-70
2022/12/23 09:32:11;;;;;;;41.58;21.73;;;;;;;3.86;80.20;99836.33;1722424;83;21139;-70
2022/12/23 09:34:42;;;;;;;43.30;21.02;;;;;;;3.88;80.18;99826.16;1722529;83;21586;-66
2022/12/23 09:37:15;;;;;;;43.40;21.65;;;;;;;3.88;80.04;99813.46;1722602;83;21649;-68
2022/12/23 09:39:44;;;;;;;45.40;21.80;;;;;;;3.88;79.62;99801.78;1722419;83;21099;-69
2022/12/23 09:42:21;;;;;;;45.67;21.62;;;;;;;3.87;79.67;99800.94;1722409;83;21629;-71
2022/12/23 09:45:16;;;;;;;46.10;22.22;;;;;;;3.88;79.62;99814.82;1722389;83;21174;-69
2022/12/23 09:47:46;;;;;;;42.40;20.52;;;;;;;3.88;79.71;99812.11;1722511;83;21182;-66
2022/12/23 09:50:30;;;;;;;44.30;21.05;;;;;;;3.89;79.57;99807.53;1722633;83;21206;-68
2022/12/23 09:53:06;;;;;;;41.58;21.70;;;;;;;3.88;79.18;99790.43;1722388;83;21155;-70
2022/12/23 09:56:09;;;;;;;42.23;20.77;;;;;;;3.89;79.08;99787.22;1695741;83;21242;-69
2022/12/23 09:59:20;;;;;;;47.03;20.97;;;;;;;3.87;79.08;99780.61;1722110;83;21162;-69
2022/12/23 10:01:58;;;;;;;38.38;20.12;;;;;;;3.89;79.14;99778.58;1722276;83;21209;-71
2022/12/23 10:04:36;;;;;;;40.35;21.60;;;;;;;3.93;79.31;99783.17;1722516;83;21166;-72
2022/12/23 10:07:27;;;;;;;43.90;21.48;;;;;;;3.93;79.03;99797.58;1718206;83;21141;-64
2022/12/23 10:09:57;;;;;;;44.70;21.02;;;;;;;3.94;78.96;99803.33;1714103;82;21132;-70
2022/12/23 10:12:40;;;;;;;48.87;23.18;;;;;;;3.98;78.95;99807.40;1712459;84;21168;-70
2022/12/23 10:15:32;;;;;;;53.05;24.25;;;;;;;4.02;78.88;99805.19;1696593;84;21164;-73
2022/12/23 10:18:07;;;;;;;47.88;23.38;;;;;;;4.06;78.94;99803.84;1694368;84;21152;-68
2022/12/23 10:20:42;;;;;;;55.30;25.52;;;;;;;4.10;78.91;99799.77;1693242;84;21183;-71
2022/12/23 10:23:32;;;;;;;95.90;70.72;;;;;;;4.16;78.83;99799.59;1684744;84;21591;-70
2022/12/23 10:26:30;;;;;;;57.43;27.62;;;;;;;4.20;78.70;99790.94;1694292;83;21609;-69
2022/12/23 10:29:18;;;;;;;55.12;24.90;;;;;;;4.23;78.47;99787.89;1638917;87;21179;-70
2022/12/23 10:32:05;;;;;;;58.50;24.95;;;;;;;4.26;78.45;99789.41;1690878;84;21582;-69
2022/12/23 10:34:58;;;;;;;48.58;25.30;;;;;;;4.32;78.44;99774.65;1694549;83;21195;-72
2022/12/23 10:37:39;;;;;;;48.65;23.57;;;;;;;4.38;78.21;99783.95;1694223;83;21108;-71
2022/12/23 10:40:24;;;;;;;49.40;23.00;;;;;;;4.39;77.87;99777.52;1694202;83;21176;-72
2022/12/23 10:43:05;;;;;;;47.23;22.37;;;;;;;4.39;77.70;99777.00;1694244;83;21172;-70
2022/12/23 10:46:01;;;;;;;48.15;22.87;;;;;;;4.39;77.46;99770.22;1694174;84;21184;-71
2022/12/23 10:49:05;;;;;;;35.50;17.00;;;;;;;4.36;77.14;99764.30;1660926;85;21618;-72
2022/12/23 10:51:58;;;;;;;47.98;22.45;;;;;;;4.34;77.21;99772.61;1660641;85;21181;-71
2022/12/23 10:54:32;;;;;;;48.17;22.00;;;;;;;4.31;76.93;99770.75;1621452;87;21171;-72
2022/12/23 10:57:03;;;;;;;45.15;21.33;;;;;;;4.26;76.77;99769.06;1654752;85;21134;-71
2022/12/23 10:59:35;;;;;;;48.42;22.77;;;;;;;4.25;77.00;99771.44;1660728;85;21184;-70
2022/12/23 11:02:21;;;;;;;47.48;22.48;;;;;;;4.26;76.99;99771.78;1660573;86;21189;-68
2022/12/23 11:04:52;;;;;;;45.85;21.90;;;;;;;4.25;77.13;99763.31;1661064;85;21170;-70
2022/12/23 11:07:27;;;;;;;53.20;22.73;;;;;;;4.23;77.23;99762.13;1660705;85;21142;-73
2022/12/23 11:10:07;;;;;;;38.28;17.82;;;;;;;4.26;77.45;99759.58;1657628;86;21565;-72
2022/12/23 11:12:43;;;;;;;48.05;23.30;;;;;;;4.27;77.31;99763.98;1660296;86;21253;-69
2022/12/23 11:15:34;;;;;;;47.90;23.60;;;;;;;4.26;77.08;99763.64;1694269;84;21619;-68
2022/12/23 11:18:19;;;;;;;48.92;22.37;;;;;;;4.27;77.20;99766.19;1694377;85;21172;-70
2022/12/23 11:21:06;;;;;;;47.95;23.30;;;;;;;4.31;77.10;99760.75;1660731;85;21132;-70
2022/12/23 11:23:36;;;;;;;52.90;24.40;;;;;;;4.33;76.88;99761.42;1660942;86;21138;-71
2022/12/23 11:26:09;;;;;;;47.73;23.47;;;;;;;4.36;76.88;99760.23;1660479;86;21185;-68
2022/12/23 11:28:42;;;;;;;46.23;22.98;;;;;;;4.35;76.94;99757.19;1642215;86;21601;-69
2022/12/23 11:31:13;;;;;;;50.98;23.20;;;;;;;4.36;77.08;99755.66;1660691;86;21142;-69
2022/12/23 11:33:59;;;;;;;57.20;24.60;;;;;;;4.36;77.11;99754.30;1660617;85;21221;-69
2022/12/23 11:36:30;;;;;;;54.38;23.40;;;;;;;4.36;77.13;99754.81;1660494;85;21154;-68
2022/12/23 11:39:27;;;;;;;53.10;23.05;;;;;;;4.37;76.96;99762.77;1660613;85;21201;-70
2022/12/23 11:42:15;;;;;;;53.65;25.02;;;;;;;4.38;76.88;99764.97;1660615;85;21160;-68
2022/12/23 11:44:51;;;;;;;53.80;24.98;;;;;;;4.40;76.86;99757.00;1659856;86;21169;-69
2022/12/23 11:47:29;;;;;;;50.03;24.00;;;;;;;4.41;76.96;99761.41;1660846;86;21141;-70
2022/12/23 11:50:04;;;;;;;48.45;24.12;;;;;;;4.43;76.96;99754.45;1660708;86;21142;-68
2022/12/23 11:52:34;;;;;;;51.70;24.65;;;;;;;4.45;77.05;99756.48;1658834;85;21117;-68
2022/12/23 11:55:09;;;;;;;52.38;24.90;;;;;;;4.46;77.07;99762.23;1660590;86;21150;-68
2022/12/23 11:57:46;;;;;;;51.85;23.67;;;;;;;4.49;77.09;99760.53;1638498;86;21165;-67
2022/12/23 12:00:41;;;;;;;53.95;23.77;;;;;;;4.53;77.14;99767.30;1660754;86;21142;-69
2022/12/23 12:03:18;;;;;;;45.88;23.45;;;;;;;4.57;77.04;99767.83;1660983;86;21191;-68
2022/12/23 12:05:56;;;;;;;48.10;23.67;;;;;;;4.59;77.00;99763.92;1660537;85;21145;-68
2022/12/23 12:08:36;;;;;;;49.00;23.22;;;;;;;4.60;77.00;99768.33;1661043;85;21141;-69
2022/12/23 12:11:18;;;;;;;55.20;24.57;;;;;;;4.62;76.87;99773.06;1660694;85;21187;-68
2022/12/23 12:13:51;;;;;;;51.80;25.08;;;;;;;4.64;76.78;99776.96;1660302;86;21201;-70
2022/12/23 12:16:52;;;;;;;57.17;24.12;;;;;;;4.65;76.70;99780.01;1660369;86;21557;-69
2022/12/23 12:20:03;;;;;;;48.08;22.37;;;;;;;4.66;76.56;99789.84;1660639;85;21177;-69
2022/12/23 12:22:41;;;;;;;49.63;23.35;;;;;;;4.67;76.09;99800.52;1649162;86;21208;-68
2022/12/23 12:25:22;;;;;;;48.50;23.67;;;;;;;4.65;76.12;99807.98;1607079;87;21675;-69